Time,TemperatureF,DewpointF,PressureIn,WindDirection,WindDirectionDegrees,WindSpeedMPH,WindSpeedGustMPH,Humidity,HourlyPrecipIn,Conditions,Clouds,dailyrainin,SoftwareType,DateUTC
2013-03-12 00:00:00,48.9,47.5,30.09,WSW,250,0.0,2.0,95,0.00,,,0.00,meteohub,2013-03-12 04:00:00,
2013-03-12 00:01:00,49.1,47.7,30.09,WSW,250,0.0,2.0,95,0.00,,,0.00,meteohub,2013-03-12 04:01:00,
2013-03-12 00:06:00,49.3,47.8,30.09,WSW,253,0.0,3.0,95,0.00,,,0.00,meteohub,2013-03-12 04:06:00,
2013-03-12 00:11:00,49.3,47.7,30.09,West,259,0.0,3.0,94,0.00,,,0.00,meteohub,2013-03-12 04:11:00,
2013-03-12 00:16:00,49.3,47.8,30.09,WNW,294,3.0,3.0,95,0.00,,,0.00,meteohub,2013-03-12 04:16:00,
2013-03-12 00:21:00,49.5,48.0,30.09,WSW,253,0.0,5.0,95,0.00,,,0.00,meteohub,2013-03-12 04:21:00,
2013-03-12 00:26:00,49.5,47.8,30.09,North,1,1.0,5.0,94,0.00,,,0.00,meteohub,2013-03-12 04:26:00,
2013-03-12 00:31:00,49.5,47.8,30.09,NE,49,0.0,5.0,94,0.00,,,0.00,meteohub,2013-03-12 04:31:00,
2013-03-12 00:36:00,49.5,47.8,30.08,West,266,0.0,4.0,94,0.00,,,0.00,meteohub,2013-03-12 04:36:00,
2013-03-12 00:41:00,49.3,47.7,30.07,West,273,0.0,6.0,94,0.00,,,0.00,meteohub,2013-03-12 04:41:00,
2013-03-12 00:46:00,49.3,47.7,30.08,West,259,0.0,6.0,94,0.00,,,0.00,meteohub,2013-03-12 04:46:00,
2013-03-12 00:51:00,49.3,47.7,30.08,SW,229,0.0,6.0,94,0.00,,,0.00,meteohub,2013-03-12 04:51:00,
2013-03-12 00:57:00,49.3,47.7,30.07,WSW,251,1.0,5.0,94,0.00,,,0.00,meteohub,2013-03-12 04:57:00,
2013-03-12 01:02:00,49.1,47.5,30.06,West,273,0.0,6.0,94,0.00,,,0.00,meteohub,2013-03-12 05:02:00,
2013-03-12 01:07:00,48.9,47.3,30.06,ENE,72,0.0,6.0,94,0.00,,,0.00,meteohub,2013-03-12 05:07:00,
2013-03-12 01:12:00,48.9,47.3,30.06,East,92,0.0,6.0,94,0.00,,,0.00,meteohub,2013-03-12 05:12:00,
2013-03-12 01:17:00,48.7,47.1,30.05,West,260,0.0,2.0,94,0.00,,,0.00,meteohub,2013-03-12 05:17:00,
2013-03-12 01:22:00,48.7,47.1,30.05,WSW,246,0.0,5.0,94,0.00,,,0.00,meteohub,2013-03-12 05:22:00,
2013-03-12 01:27:00,48.6,46.9,30.05,East,83,0.0,5.0,94,0.00,,,0.00,meteohub,2013-03-12 05:27:00,
2013-03-12 01:32:00,48.4,46.8,30.05,East,79,0.0,4.0,94,0.00,,,0.00,meteohub,2013-03-12 05:32:00,
2013-03-12 01:37:00,48.4,46.8,30.04,East,79,0.0,3.0,94,0.00,,,0.00,meteohub,2013-03-12 05:37:00,
2013-03-12 01:42:00,48.4,46.8,30.03,West,259,0.0,3.0,94,0.00,,,0.00,meteohub,2013-03-12 05:42:00,
2013-03-12 01:47:00,48.2,46.6,30.03,West,278,0.0,1.0,94,0.00,,,0.00,meteohub,2013-03-12 05:47:00,
2013-03-12 01:52:00,48.4,46.9,30.03,WSW,258,0.0,1.0,95,0.00,,,0.00,meteohub,2013-03-12 05:52:00,
2013-03-12 01:57:00,48.4,46.9,30.03,SSE,168,0.0,2.0,95,0.00,,,0.00,meteohub,2013-03-12 05:57:00,
2013-03-12 02:02:00,48.6,47.1,30.02,West,271,0.0,3.0,95,0.00,,,0.00,meteohub,2013-03-12 06:02:00,
2013-03-12 02:07:00,48.6,47.1,30.02,West,273,0.0,4.0,95,0.00,,,0.00,meteohub,2013-03-12 06:07:00,
2013-03-12 02:12:00,48.7,47.3,30.02,East,79,0.0,4.0,95,0.00,,,0.00,meteohub,2013-03-12 06:12:00,
2013-03-12 02:17:00,48.7,47.3,30.02,North,4,0.0,2.0,95,0.00,,,0.00,meteohub,2013-03-12 06:17:00,
2013-03-12 02:22:00,48.7,47.3,30.03,West,274,0.0,2.0,95,0.00,,,0.00,meteohub,2013-03-12 06:22:00,
2013-03-12 02:27:00,48.7,47.3,30.02,West,262,0.0,2.0,95,0.00,,,0.00,meteohub,2013-03-12 06:27:00,
2013-03-12 02:32:00,48.9,47.5,30.02,West,274,0.0,1.0,95,0.00,,,0.00,meteohub,2013-03-12 06:32:00,
2013-03-12 02:37:00,48.9,47.5,30.01,West,271,0.0,1.0,95,0.00,,,0.00,meteohub,2013-03-12 06:37:00,
2013-03-12 02:42:00,48.9,47.5,30.01,West,281,1.0,2.0,95,0.00,,,0.00,meteohub,2013-03-12 06:42:00,
2013-03-12 02:48:00,49.1,47.7,30.00,West,267,0.0,2.0,95,0.00,,,0.00,meteohub,2013-03-12 06:48:00,
2013-03-12 02:52:00,49.3,47.8,30.01,West,276,0.0,2.0,95,0.00,,,0.00,meteohub,2013-03-12 06:52:00,
2013-03-12 02:58:00,49.3,47.8,30.01,NW,326,0.0,3.0,95,0.00,,,0.00,meteohub,2013-03-12 06:58:00,
2013-03-12 03:03:00,49.5,47.8,30.00,West,267,0.0,3.0,94,0.00,,,0.00,meteohub,2013-03-12 07:03:00,
2013-03-12 03:08:00,49.5,47.8,30.01,West,259,0.0,4.0,94,0.00,,,0.00,meteohub,2013-03-12 07:08:00,
2013-03-12 03:13:00,49.5,47.8,30.01,WSW,258,0.0,4.0,94,0.00,,,0.00,meteohub,2013-03-12 07:13:00,
2013-03-12 03:18:00,49.5,47.8,30.00,West,274,0.0,2.0,94,0.00,,,0.00,meteohub,2013-03-12 07:18:00,
2013-03-12 03:23:00,49.5,47.5,30.00,West,274,0.0,0.0,93,0.00,,,0.00,meteohub,2013-03-12 07:23:00,
2013-03-12 03:28:00,49.5,47.5,30.00,West,274,0.0,0.0,93,0.00,,,0.00,meteohub,2013-03-12 07:28:00,
2013-03-12 03:33:00,49.3,47.3,30.00,North,355,0.0,0.0,93,0.00,,,0.00,meteohub,2013-03-12 07:33:00,
2013-03-12 03:38:00,49.3,47.3,29.99,NE,56,0.0,0.0,93,0.00,,,0.00,meteohub,2013-03-12 07:38:00,
2013-03-12 03:43:00,49.3,47.3,29.99,NE,56,0.0,0.0,93,0.00,,,0.00,meteohub,2013-03-12 07:43:00,
2013-03-12 03:48:00,49.5,47.5,29.99,WNW,282,0.0,0.0,93,0.00,,,0.00,meteohub,2013-03-12 07:48:00,
2013-03-12 03:53:00,49.5,47.5,29.99,WNW,283,0.0,1.0,93,0.00,,,0.00,meteohub,2013-03-12 07:53:00,
2013-03-12 03:58:00,49.5,47.5,30.00,West,271,0.0,1.0,93,0.00,,,0.00,meteohub,2013-03-12 07:58:00,
2013-03-12 04:03:00,49.6,47.7,30.00,West,264,0.0,1.0,93,0.00,,,0.00,meteohub,2013-03-12 08:03:00,
2013-03-12 04:08:00,49.6,47.5,30.00,ENE,58,1.0,1.0,92,0.00,,,0.00,meteohub,2013-03-12 08:08:00,
2013-03-12 04:13:00,49.6,47.5,30.00,WSW,252,0.0,1.0,92,0.00,,,0.00,meteohub,2013-03-12 08:13:00,
2013-03-12 04:18:00,50.0,47.5,29.99,NNE,25,0.0,2.0,91,0.00,,,0.00,meteohub,2013-03-12 08:18:00,
2013-03-12 04:23:00,50.2,47.7,29.99,West,280,0.0,2.0,91,0.00,,,0.00,meteohub,2013-03-12 08:23:00,
2013-03-12 04:28:00,50.5,47.7,29.99,WSW,256,1.0,3.0,90,0.00,,,0.00,meteohub,2013-03-12 08:28:00,
2013-03-12 04:33:00,51.1,48.0,29.99,WSW,258,5.0,6.0,89,0.00,,,0.00,meteohub,2013-03-12 08:33:00,
2013-03-12 04:38:00,51.4,48.0,29.99,WSW,255,0.0,6.0,88,0.00,,,0.00,meteohub,2013-03-12 08:38:00,
2013-03-12 04:43:00,51.6,47.8,29.98,WSW,240,1.0,7.0,87,0.00,,,0.00,meteohub,2013-03-12 08:43:00,
2013-03-12 04:48:00,51.6,47.8,29.98,WSW,253,2.0,7.0,87,0.00,,,0.00,meteohub,2013-03-12 08:48:00,
2013-03-12 04:53:00,51.4,47.7,29.99,West,259,0.0,6.0,87,0.00,,,0.00,meteohub,2013-03-12 08:53:00,
2013-03-12 04:58:00,51.3,47.8,29.98,West,262,1.0,6.0,88,0.00,,,0.00,meteohub,2013-03-12 08:58:00,
2013-03-12 05:03:00,51.1,47.7,29.98,West,262,3.0,6.0,88,0.00,,,0.00,meteohub,2013-03-12 09:03:00,
2013-03-12 05:08:00,50.7,47.7,29.98,West,267,5.0,5.0,89,0.00,,,0.00,meteohub,2013-03-12 09:08:00,
2013-03-12 05:13:00,50.5,47.5,29.98,WNW,284,0.0,7.0,89,0.00,,,0.00,meteohub,2013-03-12 09:13:00,
2013-03-12 05:18:00,50.4,47.5,29.98,West,269,1.0,7.0,90,0.00,,,0.00,meteohub,2013-03-12 09:18:00,
2013-03-12 05:23:00,50.2,47.7,29.98,West,266,0.0,7.0,91,0.00,,,0.00,meteohub,2013-03-12 09:23:00,
2013-03-12 05:28:00,50.0,47.5,29.97,WSW,256,0.0,4.0,91,0.00,,,0.00,meteohub,2013-03-12 09:28:00,
2013-03-12 05:33:00,49.8,47.3,29.97,West,264,0.0,3.0,91,0.01,,,0.01,meteohub,2013-03-12 09:33:00,
2013-03-12 05:38:00,49.6,47.5,29.97,West,267,1.0,3.0,92,0.01,,,0.01,meteohub,2013-03-12 09:38:00,
2013-03-12 05:43:00,49.5,47.3,29.97,NW,306,0.0,3.0,92,0.02,,,0.02,meteohub,2013-03-12 09:43:00,
2013-03-12 05:48:00,49.3,47.3,29.97,West,262,0.0,3.0,93,0.02,,,0.02,meteohub,2013-03-12 09:48:00,
2013-03-12 05:53:00,49.3,47.3,29.96,West,273,0.0,3.0,93,0.02,,,0.02,meteohub,2013-03-12 09:53:00,
2013-03-12 05:58:00,49.1,47.1,29.96,West,269,0.0,4.0,93,0.03,,,0.02,meteohub,2013-03-12 09:58:00,
2013-03-12 06:03:00,48.9,46.9,29.96,West,277,0.0,4.0,93,0.03,,,0.03,meteohub,2013-03-12 10:03:00,
2013-03-12 06:08:00,48.9,47.3,29.96,ESE,108,0.0,4.0,94,0.03,,,0.03,meteohub,2013-03-12 10:08:00,
2013-03-12 06:13:00,48.7,47.1,29.96,NE,56,0.0,3.0,94,0.03,,,0.03,meteohub,2013-03-12 10:13:00,
2013-03-12 06:18:00,48.7,47.1,29.95,SW,221,0.0,2.0,94,0.04,,,0.04,meteohub,2013-03-12 10:18:00,
2013-03-12 06:23:00,48.7,47.1,29.96,ESE,110,0.0,6.0,94,0.04,,,0.04,meteohub,2013-03-12 10:23:00,
2013-03-12 06:28:00,48.7,47.1,29.95,NW,319,0.0,6.0,94,0.04,,,0.04,meteohub,2013-03-12 10:28:00,
2013-03-12 06:33:00,48.6,46.9,29.95,NE,46,0.0,6.0,94,0.03,,,0.04,meteohub,2013-03-12 10:33:00,
2013-03-12 06:38:00,48.6,47.1,29.95,NE,45,0.0,1.0,95,0.03,,,0.04,meteohub,2013-03-12 10:38:00,
2013-03-12 06:43:00,48.6,47.1,29.96,WNW,294,0.0,0.0,95,0.03,,,0.05,meteohub,2013-03-12 10:43:00,
2013-03-12 06:48:00,48.6,47.1,29.96,WSW,250,0.0,0.0,95,0.03,,,0.05,meteohub,2013-03-12 10:48:00,
2013-03-12 06:53:00,48.6,47.1,29.96,ENE,71,0.0,1.0,95,0.03,,,0.05,meteohub,2013-03-12 10:53:00,
2013-03-12 06:58:00,48.6,47.1,29.96,ENE,78,0.0,3.0,95,0.02,,,0.05,meteohub,2013-03-12 10:58:00,
2013-03-12 07:03:00,48.7,47.3,29.96,WNW,301,0.0,3.0,95,0.03,,,0.06,meteohub,2013-03-12 11:03:00,
2013-03-12 07:08:00,48.7,47.3,29.96,West,274,0.0,3.0,95,0.03,,,0.06,meteohub,2013-03-12 11:08:00,
2013-03-12 07:13:00,48.7,47.7,29.96,WSW,249,0.0,2.0,96,0.03,,,0.07,meteohub,2013-03-12 11:13:00,
2013-03-12 07:18:00,48.7,47.7,29.96,WSW,250,0.0,2.0,96,0.03,,,0.07,meteohub,2013-03-12 11:18:00,
2013-03-12 07:23:00,48.7,47.3,29.95,WSW,250,0.0,2.0,95,0.04,,,0.08,meteohub,2013-03-12 11:23:00,
2013-03-12 07:28:00,48.7,47.7,29.95,WSW,250,0.0,2.0,96,0.04,,,0.08,meteohub,2013-03-12 11:28:00,
2013-03-12 07:33:00,48.7,47.7,29.95,WSW,250,0.0,1.0,96,0.05,,,0.09,meteohub,2013-03-12 11:33:00,
2013-03-12 07:38:00,48.7,47.7,29.96,West,273,1.0,1.0,96,0.05,,,0.09,meteohub,2013-03-12 11:38:00,
2013-03-12 07:44:00,48.9,47.8,29.95,West,276,0.0,1.0,96,0.05,,,0.10,meteohub,2013-03-12 11:44:00,
2013-03-12 07:49:00,48.9,47.8,29.95,West,270,0.0,2.0,96,0.05,,,0.10,meteohub,2013-03-12 11:49:00,
2013-03-12 07:54:00,49.1,48.0,29.95,NNW,331,0.0,2.0,96,0.05,,,0.10,meteohub,2013-03-12 11:54:00,
2013-03-12 07:59:00,49.3,48.2,29.95,West,264,0.0,4.0,96,0.06,,,0.11,meteohub,2013-03-12 11:59:00,
2013-03-12 08:04:00,49.3,48.2,29.95,WSW,242,0.0,4.0,96,0.05,,,0.11,meteohub,2013-03-12 12:04:00,
2013-03-12 08:09:00,49.5,48.4,29.95,West,267,0.0,4.0,96,0.05,,,0.11,meteohub,2013-03-12 12:09:00,
2013-03-12 08:14:00,49.6,48.6,29.95,SW,228,0.0,1.0,96,0.04,,,0.11,meteohub,2013-03-12 12:14:00,
2013-03-12 08:19:00,49.8,48.7,29.95,West,267,0.0,1.0,96,0.04,,,0.11,meteohub,2013-03-12 12:19:00,
2013-03-12 08:24:00,49.8,48.7,29.95,SSW,202,0.0,4.0,96,0.04,,,0.12,meteohub,2013-03-12 12:24:00,
2013-03-12 08:29:00,49.8,48.7,29.94,West,266,0.0,4.0,96,0.03,,,0.12,meteohub,2013-03-12 12:29:00,
2013-03-12 08:34:00,50.0,48.9,29.95,NE,50,0.0,4.0,96,0.03,,,0.12,meteohub,2013-03-12 12:34:00,
2013-03-12 08:39:00,50.2,49.1,29.95,West,260,2.0,8.0,96,0.02,,,0.12,meteohub,2013-03-12 12:39:00,
2013-03-12 08:44:00,50.2,49.1,29.94,NW,318,0.0,8.0,96,0.03,,,0.13,meteohub,2013-03-12 12:44:00,
2013-03-12 08:49:00,50.0,48.9,29.94,NNE,23,0.0,8.0,96,0.03,,,0.13,meteohub,2013-03-12 12:49:00,
2013-03-12 08:54:00,50.2,49.1,29.94,WSW,253,0.0,4.0,96,0.04,,,0.14,meteohub,2013-03-12 12:54:00,
2013-03-12 08:59:00,50.2,49.1,29.94,West,276,0.0,2.0,96,0.03,,,0.14,meteohub,2013-03-12 12:59:00,
2013-03-12 09:04:00,50.2,49.1,29.94,West,262,1.0,4.0,96,0.03,,,0.14,meteohub,2013-03-12 13:04:00,
2013-03-12 09:09:00,50.2,49.1,29.94,West,280,0.0,4.0,96,0.03,,,0.14,meteohub,2013-03-12 13:09:00,
2013-03-12 09:14:00,50.2,49.1,29.94,WSW,257,0.0,4.0,96,0.03,,,0.14,meteohub,2013-03-12 13:14:00,
2013-03-12 09:19:00,50.2,49.1,29.94,West,266,0.0,4.0,96,0.03,,,0.15,meteohub,2013-03-12 13:19:00,
2013-03-12 09:24:00,50.2,49.1,29.94,NW,326,0.0,4.0,96,0.03,,,0.15,meteohub,2013-03-12 13:24:00,
2013-03-12 09:29:00,50.2,49.1,29.94,East,82,0.0,4.0,96,0.03,,,0.15,meteohub,2013-03-12 13:29:00,
2013-03-12 09:34:00,50.2,49.1,29.93,WNW,283,0.0,3.0,96,0.03,,,0.15,meteohub,2013-03-12 13:34:00,
2013-03-12 09:39:00,50.2,49.1,29.93,West,280,0.0,3.0,96,0.03,,,0.16,meteohub,2013-03-12 13:39:00,
2013-03-12 09:44:00,50.4,49.3,29.93,WNW,287,0.0,3.0,96,0.03,,,0.16,meteohub,2013-03-12 13:44:00,
2013-03-12 09:49:00,50.4,49.3,29.93,SSE,150,0.0,4.0,96,0.02,,,0.16,meteohub,2013-03-12 13:49:00,
2013-03-12 09:54:00,50.4,49.3,29.93,ENE,68,0.0,5.0,96,0.02,,,0.16,meteohub,2013-03-12 13:54:00,
2013-03-12 09:59:00,50.5,49.5,29.92,WSW,239,0.0,5.0,96,0.03,,,0.17,meteohub,2013-03-12 13:59:00,
2013-03-12 10:04:00,50.5,49.5,29.92,West,273,1.0,5.0,96,0.03,,,0.17,meteohub,2013-03-12 14:04:00,
2013-03-12 10:09:00,50.7,49.8,29.92,NNW,335,0.0,5.0,97,0.04,,,0.18,meteohub,2013-03-12 14:09:00,
2013-03-12 10:14:00,50.7,49.8,29.91,WSW,255,0.0,5.0,97,0.04,,,0.18,meteohub,2013-03-12 14:14:00,
2013-03-12 10:19:00,51.1,50.2,29.91,East,98,0.0,5.0,97,0.04,,,0.19,meteohub,2013-03-12 14:19:00,
2013-03-12 10:24:00,51.1,50.2,29.91,NW,323,1.0,5.0,97,0.04,,,0.19,meteohub,2013-03-12 14:24:00,
2013-03-12 10:29:00,51.3,50.4,29.91,West,262,2.0,5.0,97,0.05,,,0.20,meteohub,2013-03-12 14:29:00,
2013-03-12 10:34:00,51.3,50.4,29.91,ENE,67,0.0,5.0,97,0.06,,,0.21,meteohub,2013-03-12 14:34:00,
2013-03-12 10:39:00,51.4,50.5,29.90,WNW,285,1.0,5.0,97,0.05,,,0.21,meteohub,2013-03-12 14:39:00,
2013-03-12 10:44:00,51.6,50.7,29.90,East,93,2.0,5.0,97,0.05,,,0.21,meteohub,2013-03-12 14:44:00,
2013-03-12 10:49:00,51.6,50.7,29.90,West,276,1.0,5.0,97,0.06,,,0.22,meteohub,2013-03-12 14:49:00,
2013-03-12 10:54:00,51.8,50.9,29.90,West,276,0.0,4.0,97,0.05,,,0.22,meteohub,2013-03-12 14:54:00,
2013-03-12 10:59:00,51.8,50.9,29.90,West,264,0.0,4.0,97,0.05,,,0.22,meteohub,2013-03-12 14:59:00,
2013-03-12 11:04:00,52.0,51.1,29.89,ESE,103,0.0,4.0,97,0.06,,,0.23,meteohub,2013-03-12 15:04:00,
2013-03-12 11:09:00,52.0,51.1,29.89,West,263,0.0,3.0,97,0.06,,,0.23,meteohub,2013-03-12 15:09:00,
2013-03-12 11:14:00,52.2,51.3,29.88,ENE,68,2.0,4.0,97,0.06,,,0.24,meteohub,2013-03-12 15:14:00,
2013-03-12 11:19:00,52.2,51.3,29.88,ENE,61,0.0,6.0,97,0.06,,,0.25,meteohub,2013-03-12 15:19:00,
2013-03-12 11:24:00,52.2,51.3,29.88,ESE,104,0.0,6.0,97,0.06,,,0.26,meteohub,2013-03-12 15:24:00,
2013-03-12 11:29:00,52.2,51.3,29.88,WNW,285,0.0,6.0,97,0.08,,,0.28,meteohub,2013-03-12 15:29:00,
2013-03-12 11:34:00,52.0,51.1,29.88,East,80,0.0,5.0,97,0.09,,,0.30,meteohub,2013-03-12 15:34:00,
2013-03-12 11:39:00,52.0,51.1,29.87,NW,323,0.0,5.0,97,0.10,,,0.31,meteohub,2013-03-12 15:39:00,
2013-03-12 11:45:00,52.0,51.1,29.87,NNW,330,0.0,5.0,97,0.10,,,0.32,meteohub,2013-03-12 15:45:00,
2013-03-12 11:50:00,52.0,51.1,29.87,West,262,0.0,4.0,97,0.11,,,0.33,meteohub,2013-03-12 15:50:00,
2013-03-12 11:55:00,52.0,51.1,29.86,WSW,238,2.0,4.0,97,0.13,,,0.35,meteohub,2013-03-12 15:55:00,
2013-03-12 12:00:00,52.0,51.1,29.86,East,96,0.0,4.0,97,0.14,,,0.37,meteohub,2013-03-12 16:00:00,
2013-03-12 12:05:00,52.2,51.3,29.86,East,79,1.0,4.0,97,0.15,,,0.39,meteohub,2013-03-12 16:05:00,
2013-03-12 12:10:00,52.2,51.3,29.86,East,91,0.0,3.0,97,0.15,,,0.40,meteohub,2013-03-12 16:10:00,
2013-03-12 12:15:00,52.2,51.3,29.85,ESE,117,0.0,3.0,97,0.16,,,0.40,meteohub,2013-03-12 16:15:00,
2013-03-12 12:20:00,52.2,51.3,29.85,East,85,0.0,3.0,97,0.15,,,0.42,meteohub,2013-03-12 16:20:00,
2013-03-12 12:25:00,52.2,51.3,29.84,East,101,3.0,3.0,97,0.14,,,0.43,meteohub,2013-03-12 16:25:00,
2013-03-12 12:30:00,52.2,51.3,29.85,SE,124,0.0,3.0,97,0.13,,,0.43,meteohub,2013-03-12 16:30:00,
2013-03-12 12:35:00,52.2,51.3,29.85,East,85,0.0,4.0,97,0.13,,,0.44,meteohub,2013-03-12 16:35:00,
2013-03-12 12:40:00,52.2,51.3,29.85,NNE,22,2.0,4.0,97,0.12,,,0.45,meteohub,2013-03-12 16:40:00,
2013-03-12 12:45:00,52.3,51.4,29.84,SSE,155,1.0,5.0,97,0.12,,,0.46,meteohub,2013-03-12 16:45:00,
2013-03-12 12:50:00,52.3,51.4,29.84,East,92,1.0,5.0,97,0.12,,,0.48,meteohub,2013-03-12 16:50:00,
2013-03-12 12:55:00,52.5,51.6,29.83,NW,312,2.0,4.0,97,0.12,,,0.49,meteohub,2013-03-12 16:55:00,
2013-03-12 13:00:00,52.5,51.6,29.83,WNW,293,1.0,8.0,97,0.10,,,0.49,meteohub,2013-03-12 17:00:00,
2013-03-12 13:05:00,52.5,51.6,29.82,NNE,14,2.0,8.0,97,0.11,,,0.51,meteohub,2013-03-12 17:05:00,
2013-03-12 13:10:00,52.5,51.6,29.82,West,270,1.0,6.0,97,0.10,,,0.51,meteohub,2013-03-12 17:10:00,
2013-03-12 13:15:00,52.5,51.6,29.82,WNW,287,1.0,6.0,97,0.10,,,0.52,meteohub,2013-03-12 17:15:00,
2013-03-12 13:20:00,52.5,51.6,29.81,ENE,65,1.0,6.0,97,0.12,,,0.54,meteohub,2013-03-12 17:20:00,
2013-03-12 13:25:00,52.5,51.6,29.81,West,281,1.0,6.0,97,0.13,,,0.56,meteohub,2013-03-12 17:25:00,
2013-03-12 13:30:00,52.7,51.8,29.80,NNW,338,0.0,7.0,97,0.13,,,0.57,meteohub,2013-03-12 17:30:00,
2013-03-12 13:35:00,52.9,52.0,29.80,WNW,282,1.0,8.0,97,0.13,,,0.58,meteohub,2013-03-12 17:35:00,
2013-03-12 13:40:00,53.1,52.2,29.79,SW,231,5.0,8.0,97,0.13,,,0.59,meteohub,2013-03-12 17:40:00,
2013-03-12 13:45:00,53.2,52.3,29.78,WNW,284,3.0,7.0,97,0.13,,,0.60,meteohub,2013-03-12 17:45:00,
2013-03-12 13:50:00,53.2,52.3,29.79,ENE,77,2.0,9.0,97,0.13,,,0.61,meteohub,2013-03-12 17:50:00,
2013-03-12 13:55:00,53.2,52.3,29.78,West,264,0.0,9.0,97,0.13,,,0.62,meteohub,2013-03-12 17:55:00,
2013-03-12 14:00:00,53.2,52.3,29.78,West,271,2.0,9.0,97,0.13,,,0.63,meteohub,2013-03-12 18:00:00,
2013-03-12 14:05:00,53.2,52.3,29.77,WNW,295,1.0,9.0,97,0.13,,,0.64,meteohub,2013-03-12 18:05:00,
2013-03-12 14:10:00,53.2,52.3,29.76,West,273,4.0,9.0,97,0.14,,,0.66,meteohub,2013-03-12 18:10:00,
2013-03-12 14:15:00,53.2,52.3,29.77,NNE,25,1.0,10.0,97,0.15,,,0.68,meteohub,2013-03-12 18:15:00,
2013-03-12 14:20:00,53.2,52.3,29.76,ENE,64,0.0,10.0,97,0.14,,,0.69,meteohub,2013-03-12 18:20:00,
2013-03-12 14:25:00,53.2,52.3,29.76,North,9,2.0,10.0,97,0.15,,,0.71,meteohub,2013-03-12 18:25:00,
2013-03-12 14:30:00,53.2,52.3,29.75,SSW,208,2.0,11.0,97,0.17,,,0.74,meteohub,2013-03-12 18:30:00,
2013-03-12 14:35:00,53.4,52.5,29.74,SSW,203,3.0,11.0,97,0.17,,,0.75,meteohub,2013-03-12 18:35:00,
2013-03-12 14:40:00,53.4,52.5,29.74,NW,306,0.0,11.0,97,0.16,,,0.76,meteohub,2013-03-12 18:40:00,
2013-03-12 14:45:00,53.4,52.5,29.74,WNW,285,1.0,10.0,97,0.18,,,0.78,meteohub,2013-03-12 18:45:00,
2013-03-12 14:50:00,53.4,52.5,29.73,WSW,238,3.0,10.0,97,0.18,,,0.79,meteohub,2013-03-12 18:50:00,
2013-03-12 14:56:00,53.4,52.5,29.73,WSW,255,4.0,10.0,97,0.19,,,0.81,meteohub,2013-03-12 18:56:00,
2013-03-12 15:01:00,53.4,52.5,29.72,NNE,12,2.0,10.0,97,0.19,,,0.82,meteohub,2013-03-12 19:01:00,
2013-03-12 15:06:00,53.4,52.5,29.72,West,280,3.0,7.0,97,0.17,,,0.82,meteohub,2013-03-12 19:06:00,
2013-03-12 15:11:00,53.6,52.7,29.71,WSW,243,1.0,7.0,97,0.17,,,0.83,meteohub,2013-03-12 19:11:00,
2013-03-12 15:16:00,53.8,52.9,29.70,NE,36,1.0,9.0,97,0.16,,,0.84,meteohub,2013-03-12 19:16:00,
2013-03-12 15:21:00,53.8,52.9,29.70,WSW,239,3.0,13.0,97,0.14,,,0.84,meteohub,2013-03-12 19:21:00,
2013-03-12 15:26:00,54.0,53.1,29.70,West,273,2.0,13.0,97,0.12,,,0.84,meteohub,2013-03-12 19:26:00,
2013-03-12 15:31:00,54.1,53.2,29.70,WSW,238,1.0,13.0,97,0.10,,,0.84,meteohub,2013-03-12 19:31:00,
2013-03-12 15:36:00,54.3,53.4,29.69,West,271,4.0,10.0,97,0.10,,,0.85,meteohub,2013-03-12 19:36:00,
2013-03-12 15:41:00,54.3,53.4,29.69,WNW,300,2.0,10.0,97,0.11,,,0.87,meteohub,2013-03-12 19:41:00,
2013-03-12 15:46:00,54.3,53.4,29.68,ENE,65,4.0,10.0,97,0.14,,,0.92,meteohub,2013-03-12 19:46:00,
2013-03-12 15:51:00,54.3,53.4,29.69,North,8,2.0,11.0,97,0.14,,,0.94,meteohub,2013-03-12 19:51:00,
2013-03-12 15:56:00,54.1,53.2,29.69,WSW,246,4.0,11.0,97,0.16,,,0.97,meteohub,2013-03-12 19:56:00,
2013-03-12 16:01:00,54.1,53.2,29.68,East,79,1.0,12.0,97,0.19,,,1.01,meteohub,2013-03-12 20:01:00,
2013-03-12 16:06:00,54.3,53.4,29.68,NW,324,2.0,16.0,97,0.21,,,1.03,meteohub,2013-03-12 20:06:00,
2013-03-12 16:11:00,54.3,53.4,29.68,NW,316,3.0,16.0,97,0.24,,,1.07,meteohub,2013-03-12 20:11:00,
2013-03-12 16:16:00,54.1,53.2,29.68,West,266,5.0,16.0,97,0.28,,,1.12,meteohub,2013-03-12 20:16:00,
2013-03-12 16:22:00,54.1,53.2,29.68,West,276,0.0,14.0,97,0.30,,,1.14,meteohub,2013-03-12 20:22:00,
2013-03-12 16:27:00,54.0,53.1,29.68,WSW,255,5.0,14.0,97,0.32,,,1.16,meteohub,2013-03-12 20:27:00,
2013-03-12 16:32:00,54.0,53.1,29.67,West,281,1.0,11.0,97,0.32,,,1.17,meteohub,2013-03-12 20:32:00,
2013-03-12 16:37:00,54.0,53.1,29.68,West,278,0.0,11.0,97,0.33,,,1.18,meteohub,2013-03-12 20:37:00,
2013-03-12 16:42:00,54.1,53.2,29.67,WSW,252,6.0,11.0,97,0.31,,,1.19,meteohub,2013-03-12 20:42:00,
2013-03-12 16:47:00,54.1,53.2,29.67,West,280,5.0,12.0,97,0.27,,,1.19,meteohub,2013-03-12 20:47:00,
2013-03-12 16:52:00,54.0,53.1,29.67,WNW,290,2.0,12.0,97,0.24,,,1.19,meteohub,2013-03-12 20:52:00,
2013-03-12 16:57:00,53.8,52.9,29.67,West,270,5.0,11.0,97,0.20,,,1.19,meteohub,2013-03-12 20:57:00,
2013-03-12 17:02:00,53.2,52.3,29.67,NNE,23,0.0,11.0,97,0.17,,,1.19,meteohub,2013-03-12 21:02:00,
2013-03-12 17:07:00,52.9,52.0,29.67,West,276,1.0,11.0,97,0.15,,,1.19,meteohub,2013-03-12 21:07:00,
2013-03-12 17:12:00,52.5,51.6,29.67,NW,320,2.0,13.0,97,0.10,,,1.19,meteohub,2013-03-12 21:12:00,
2013-03-12 17:17:00,52.2,51.3,29.66,East,82,0.0,13.0,97,0.07,,,1.19,meteohub,2013-03-12 21:17:00,
2013-03-12 17:22:00,52.0,51.1,29.66,North,356,3.0,13.0,97,0.04,,,1.19,meteohub,2013-03-12 21:22:00,
2013-03-12 17:28:00,52.0,51.1,29.67,WSW,254,1.0,13.0,97,0.03,,,1.19,meteohub,2013-03-12 21:28:00,
2013-03-12 17:33:00,52.0,51.1,29.67,West,259,5.0,13.0,97,0.01,,,1.19,meteohub,2013-03-12 21:33:00,
2013-03-12 17:38:00,52.0,51.1,29.67,WSW,238,0.0,13.0,97,0.01,,,1.19,meteohub,2013-03-12 21:38:00,
2013-03-12 17:43:00,52.0,51.1,29.67,NW,304,4.0,11.0,97,0.00,,,1.19,meteohub,2013-03-12 21:43:00,
2013-03-12 17:48:00,52.0,51.1,29.67,SW,233,0.0,9.0,97,0.00,,,1.19,meteohub,2013-03-12 21:48:00,
2013-03-12 17:53:00,51.8,50.9,29.67,WSW,250,2.0,12.0,97,0.00,,,1.19,meteohub,2013-03-12 21:53:00,
2013-03-12 17:58:00,51.8,50.9,29.68,SW,232,5.0,12.0,97,0.01,,,1.20,meteohub,2013-03-12 21:58:00,
2013-03-12 18:03:00,51.8,51.3,29.68,SW,231,0.0,8.0,98,0.01,,,1.20,meteohub,2013-03-12 22:03:00,
2013-03-12 18:08:00,52.0,51.4,29.67,SE,124,0.0,8.0,98,0.01,,,1.20,meteohub,2013-03-12 22:08:00,
2013-03-12 18:13:00,52.0,51.4,29.68,West,269,1.0,8.0,98,0.01,,,1.20,meteohub,2013-03-12 22:13:00,
2013-03-12 18:18:00,52.0,51.4,29.68,West,264,0.0,8.0,98,0.01,,,1.20,meteohub,2013-03-12 22:18:00,
2013-03-12 18:23:00,52.0,51.4,29.68,West,269,0.0,3.0,98,0.01,,,1.20,meteohub,2013-03-12 22:23:00,
2013-03-12 18:28:00,52.2,51.6,29.68,SW,225,0.0,3.0,98,0.01,,,1.20,meteohub,2013-03-12 22:28:00,
2013-03-12 18:33:00,52.2,51.6,29.69,WNW,297,0.0,3.0,98,0.01,,,1.20,meteohub,2013-03-12 22:33:00,
2013-03-12 18:38:00,52.3,51.8,29.69,WNW,289,0.0,3.0,98,0.01,,,1.20,meteohub,2013-03-12 22:38:00,
2013-03-12 18:43:00,52.3,51.8,29.69,WSW,257,0.0,3.0,98,0.01,,,1.20,meteohub,2013-03-12 22:43:00,
2013-03-12 18:48:00,52.5,52.0,29.70,WSW,258,1.0,3.0,98,0.01,,,1.20,meteohub,2013-03-12 22:48:00,
2013-03-12 18:53:00,52.5,52.0,29.70,West,266,0.0,2.0,98,0.01,,,1.20,meteohub,2013-03-12 22:53:00,
2013-03-12 18:58:00,52.7,52.2,29.70,WSW,239,0.0,2.0,98,0.00,,,1.20,meteohub,2013-03-12 22:58:00,
2013-03-12 19:03:00,52.7,52.2,29.71,WSW,239,0.0,2.0,98,0.00,,,1.20,meteohub,2013-03-12 23:03:00,
2013-03-12 19:08:00,52.7,52.2,29.72,WSW,240,0.0,1.0,98,0.00,,,1.20,meteohub,2013-03-12 23:08:00,
2013-03-12 19:13:00,52.9,52.3,29.72,SW,236,2.0,0.0,98,0.01,,,1.21,meteohub,2013-03-12 23:13:00,
2013-03-12 19:18:00,52.5,52.0,29.73,West,273,1.0,5.0,98,0.01,,,1.21,meteohub,2013-03-12 23:18:00,
2013-03-12 19:23:00,52.2,51.3,29.73,North,3,1.0,5.0,97,0.01,,,1.21,meteohub,2013-03-12 23:23:00,
2013-03-12 19:28:00,52.0,51.1,29.73,WSW,254,0.0,5.0,97,0.01,,,1.21,meteohub,2013-03-12 23:28:00,
2013-03-12 19:33:00,51.6,50.7,29.73,West,276,0.0,5.0,97,0.01,,,1.21,meteohub,2013-03-12 23:33:00,
2013-03-12 19:38:00,51.4,50.5,29.74,West,266,0.0,5.0,97,0.01,,,1.21,meteohub,2013-03-12 23:38:00,
2013-03-12 19:43:00,51.1,50.2,29.74,WSW,255,0.0,2.0,97,0.01,,,1.21,meteohub,2013-03-12 23:43:00,
2013-03-12 19:48:00,50.7,49.8,29.74,WSW,255,0.0,3.0,97,0.01,,,1.21,meteohub,2013-03-12 23:48:00,
2013-03-12 19:53:00,50.4,49.5,29.74,SW,236,1.0,3.0,97,0.01,,,1.21,meteohub,2013-03-12 23:53:00,
2013-03-12 19:58:00,50.0,49.1,29.74,West,271,3.0,6.0,97,0.01,,,1.21,meteohub,2013-03-12 23:58:00,
2013-03-12 20:03:00,49.6,48.6,29.74,WSW,249,0.0,6.0,96,0.01,,,1.21,meteohub,2013-03-13 00:03:00,
2013-03-12 20:08:00,49.3,48.2,29.74,WSW,256,0.0,9.0,96,0.00,,,1.21,meteohub,2013-03-13 00:08:00,
2013-03-12 20:13:00,48.9,47.5,29.75,WSW,250,1.0,9.0,95,0.00,,,1.21,meteohub,2013-03-13 00:13:00,
2013-03-12 20:18:00,48.7,47.3,29.75,West,267,1.0,3.0,95,0.00,,,1.21,meteohub,2013-03-13 00:18:00,
2013-03-12 20:24:00,48.7,46.8,29.76,West,273,0.0,4.0,93,0.00,,,1.21,meteohub,2013-03-13 00:24:00,
2013-03-12 20:29:00,48.7,46.6,29.76,West,263,0.0,5.0,92,0.00,,,1.21,meteohub,2013-03-13 00:29:00,
2013-03-12 20:34:00,48.6,46.0,29.76,WSW,257,1.0,5.0,91,0.00,,,1.21,meteohub,2013-03-13 00:34:00,
2013-03-12 20:39:00,48.4,45.3,29.76,West,259,3.0,5.0,89,0.00,,,1.21,meteohub,2013-03-13 00:39:00,
2013-03-12 20:44:00,48.2,44.6,29.77,West,269,0.0,7.0,87,0.00,,,1.21,meteohub,2013-03-13 00:44:00,
2013-03-12 20:49:00,48.0,44.1,29.77,WSW,249,2.0,7.0,86,0.00,,,1.21,meteohub,2013-03-13 00:49:00,
2013-03-12 20:54:00,47.8,43.9,29.77,WNW,285,1.0,7.0,86,0.00,,,1.21,meteohub,2013-03-13 00:54:00,
2013-03-12 20:59:00,47.7,43.3,29.78,WSW,255,4.0,5.0,85,0.00,,,1.21,meteohub,2013-03-13 00:59:00,
2013-03-12 21:04:00,47.5,42.8,29.78,North,357,1.0,5.0,84,0.00,,,1.21,meteohub,2013-03-13 01:04:00,
2013-03-12 21:09:00,47.3,42.8,29.78,SW,228,2.0,5.0,84,0.00,,,1.21,meteohub,2013-03-13 01:09:00,
2013-03-12 21:14:00,47.1,42.6,29.78,SW,235,4.0,5.0,84,0.00,,,1.21,meteohub,2013-03-13 01:14:00,
2013-03-12 21:19:00,46.9,42.1,29.78,West,260,1.0,6.0,83,0.00,,,1.21,meteohub,2013-03-13 01:19:00,
2013-03-12 21:24:00,46.8,41.9,29.78,SW,225,3.0,6.0,83,0.00,,,1.21,meteohub,2013-03-13 01:24:00,
2013-03-12 21:29:00,46.6,41.7,29.78,West,259,1.0,6.0,83,0.00,,,1.21,meteohub,2013-03-13 01:29:00,
2013-03-12 21:34:00,46.6,41.7,29.79,West,268,0.0,6.0,83,0.00,,,1.21,meteohub,2013-03-13 01:34:00,
2013-03-12 21:39:00,46.4,41.5,29.79,West,277,2.0,5.0,83,0.00,,,1.21,meteohub,2013-03-13 01:39:00,
2013-03-12 21:44:00,46.4,41.2,29.79,NW,318,0.0,5.0,82,0.00,,,1.21,meteohub,2013-03-13 01:44:00,
2013-03-12 21:49:00,46.2,41.4,29.79,NW,316,2.0,4.0,83,0.00,,,1.21,meteohub,2013-03-13 01:49:00,
2013-03-12 21:54:00,46.0,40.8,29.79,West,281,3.0,3.0,82,0.00,,,1.21,meteohub,2013-03-13 01:54:00,
2013-03-12 21:59:00,45.9,40.6,29.78,WSW,255,1.0,7.0,82,0.00,,,1.21,meteohub,2013-03-13 01:59:00,
2013-03-12 22:04:00,45.7,40.5,29.78,NW,326,1.0,7.0,82,0.00,,,1.21,meteohub,2013-03-13 02:04:00,
2013-03-12 22:09:00,45.5,40.6,29.78,SW,225,3.0,7.0,83,0.00,,,1.21,meteohub,2013-03-13 02:09:00,
2013-03-12 22:14:00,45.3,40.5,29.78,WSW,255,0.0,4.0,83,0.00,,,1.21,meteohub,2013-03-13 02:14:00,
2013-03-12 22:19:00,45.1,40.3,29.78,West,271,3.0,4.0,83,0.00,,,1.21,meteohub,2013-03-13 02:19:00,
2013-03-12 22:24:00,45.0,40.5,29.79,West,262,1.0,4.0,84,0.00,,,1.21,meteohub,2013-03-13 02:24:00,
2013-03-12 22:29:00,45.0,40.1,29.79,WSW,245,3.0,4.0,83,0.00,,,1.21,meteohub,2013-03-13 02:29:00,
2013-03-12 22:34:00,44.8,39.9,29.78,West,276,1.0,4.0,83,0.00,,,1.21,meteohub,2013-03-13 02:34:00,
2013-03-12 22:39:00,44.8,39.9,29.78,NW,326,0.0,4.0,83,0.00,,,1.21,meteohub,2013-03-13 02:39:00,
2013-03-12 22:44:00,44.6,39.4,29.79,WNW,285,0.0,7.0,82,0.00,,,1.21,meteohub,2013-03-13 02:44:00,
2013-03-12 22:50:00,44.4,39.2,29.78,SSW,206,2.0,7.0,82,0.00,,,1.21,meteohub,2013-03-13 02:50:00,
2013-03-12 22:55:00,44.4,39.2,29.79,WNW,285,1.0,7.0,82,0.00,,,1.21,meteohub,2013-03-13 02:55:00,
2013-03-12 23:00:00,44.2,39.0,29.79,ENE,61,0.0,7.0,82,0.00,,,1.21,meteohub,2013-03-13 03:00:00,
2013-03-12 23:05:00,44.1,38.8,29.79,WSW,243,1.0,4.0,82,0.00,,,1.21,meteohub,2013-03-13 03:05:00,
2013-03-12 23:10:00,44.1,38.8,29.79,SW,229,0.0,8.0,82,0.00,,,1.21,meteohub,2013-03-13 03:10:00,
2013-03-12 23:15:00,43.9,39.0,29.79,WSW,247,1.0,8.0,83,0.00,,,1.21,meteohub,2013-03-13 03:15:00,
2013-03-12 23:20:00,43.7,38.8,29.79,NE,46,0.0,3.0,83,0.00,,,1.21,meteohub,2013-03-13 03:20:00,
2013-03-12 23:25:00,43.7,38.5,29.78,WSW,257,0.0,4.0,82,0.00,,,1.21,meteohub,2013-03-13 03:25:00,
2013-03-12 23:30:00,43.5,38.7,29.79,SW,218,0.0,4.0,83,0.00,,,1.21,meteohub,2013-03-13 03:30:00,
2013-03-12 23:35:00,43.3,38.5,29.78,SW,229,0.0,4.0,83,0.00,,,1.21,meteohub,2013-03-13 03:35:00,
2013-03-12 23:40:00,43.3,38.5,29.78,SW,222,0.0,2.0,83,0.00,,,1.21,meteohub,2013-03-13 03:40:00,
2013-03-12 23:45:00,43.2,38.3,29.79,West,271,0.0,2.0,83,0.00,,,1.21,meteohub,2013-03-13 03:45:00,
2013-03-12 23:50:00,43.2,38.3,29.79,SW,233,0.0,4.0,83,0.00,,,1.21,meteohub,2013-03-13 03:50:00,
2013-03-12 23:55:00,43.0,38.1,29.79,ESE,121,0.0,4.0,83,0.00,,,1.21,meteohub,2013-03-13 03:55:00,